Disclaimer

Please do not use the information listed here in-flight or in-navigation, as they are not provided to us by the airports but are provided by volunteers, so they might be outdated.

Search


Regions


Airport information page

Radio informations:
UNICOM - 123.0 MHz
SAN JUAN RDO - 108.2 MHz
Ground (GND) - 121.7 MHz
Common traffic adv. frequency (CTAF) - 118.6 MHz
Automatic Terminal Information Service (ATIS) - 135.65 MHz

Airport informations:
Latitude: 17° 42' 06.80" N
Longitude: 064° 47' 54.80" W
Elevation: 74 feet - 23 meters
Operating hours: Remarks
Operating agency: Civil government, landing fees and diplomatic clearance may be required
Timezone: UTC-4
Fuel: Jet A1+, Jet A1 with icing inhibitor.

Jet A1, without icing nhibitor.

100/130 octane gasoline, leaded, MIL-L-5572F (GREEN)

Runway information:
10/28 - 10004 x 150 feet< - >3049 x 46 meters

Recent METARs:
TISX 191653Z 09017KT 10SM FEW011 31/22 A2999 RMK AO2 SLP154 T03110217
TISX 191653Z 09017KT 10SM FEW011 31/22 A2999 RMK AO2 SLP154 T03110217
TISX 191753Z 08014G22KT 10SM SCT033 31/22 A2997

Airport on the map: